createdAt,value
2022-08-02T00:01:29.249Z,101274.56
2022-08-02T00:06:30.957Z,101266.66
2022-08-02T00:11:32.618Z,101272.84
2022-08-02T00:16:38.397Z,101271.09
2022-08-02T00:21:40.262Z,101275.50
2022-08-02T00:26:41.901Z,101270.22
2022-08-02T00:31:43.576Z,101271.97
2022-08-02T00:36:45.432Z,101274.56
2022-08-02T00:41:48.540Z,101270.19
2022-08-02T00:46:50.264Z,101274.59
2022-08-02T00:51:51.950Z,101283.38
2022-08-02T00:56:54.696Z,101286.84
2022-08-02T01:01:58.343Z,101285.09
2022-08-02T01:07:00.916Z,101282.47
2022-08-02T01:12:02.931Z,101287.72
2022-08-02T01:17:31.610Z,101284.22
2022-08-02T01:23:02.564Z,101276.31
2022-08-02T01:28:29.647Z,101282.44
2022-08-02T01:33:35.625Z,101271.97
2022-08-02T01:38:43.388Z,101268.41
2022-08-02T01:43:45.102Z,101275.41
2022-08-02T01:48:46.876Z,101281.53
2022-08-02T01:53:48.763Z,101280.63
2022-08-02T01:58:50.467Z,101281.47
2022-08-02T02:03:52.490Z,101269.22
2022-08-02T02:08:54.180Z,101270.97
2022-08-02T02:13:57.998Z,101272.72
2022-08-02T02:19:01.427Z,101277.06
2022-08-02T02:24:03.120Z,101288.38
2022-08-02T02:29:05.316Z,101290.06
2022-08-02T02:34:18.280Z,101288.25
2022-08-02T02:39:21.251Z,101280.34
2022-08-02T02:44:23.010Z,101285.56
2022-08-02T02:49:24.900Z,101270.66
2022-08-02T02:54:34.457Z,101266.22
2022-08-02T02:59:43.016Z,101270.56
2022-08-02T03:04:56.824Z,101271.44
2022-08-02T03:09:59.751Z,101269.63
2022-08-02T03:15:04.649Z,101273.13
2022-08-02T03:20:16.933Z,101268.72
2022-08-02T03:25:18.954Z,101268.81
2022-08-02T03:30:24.547Z,101266.16
2022-08-02T03:35:26.244Z,101265.22
2022-08-02T03:40:27.943Z,101265.22
2022-08-02T03:45:29.625Z,101260.72
2022-08-02T03:50:31.727Z,101253.72
2022-08-02T03:55:33.661Z,101272.03
2022-08-02T04:00:35.413Z,101269.38
2022-08-02T04:05:37.110Z,101277.22
2022-08-02T04:11:17.620Z,101273.72
2022-08-02T04:16:21.112Z,101271.09
2022-08-02T04:21:24.724Z,101285.91
2022-08-02T04:26:28.221Z,101281.50
2022-08-02T04:31:30.203Z,101291.97
2022-08-02T04:36:32.057Z,101292.03
2022-08-02T04:41:57.184Z,101292.06
2022-08-02T04:47:04.766Z,101294.84
2022-08-02T04:52:08.354Z,101295.78
2022-08-02T04:57:28.975Z,101296.78
2022-08-02T05:02:30.663Z,101288.19
2022-08-02T05:07:36.130Z,101291.81
2022-08-02T05:12:39.053Z,101276.22
2022-08-02T05:17:47.746Z,101278.88
2022-08-02T05:22:50.237Z,101271.06
2022-08-02T05:27:51.913Z,101271.94
2022-08-02T05:32:53.653Z,101286.84
2022-08-02T05:37:55.312Z,101285.97
2022-08-02T05:42:57.304Z,101289.47
2022-08-02T05:47:58.973Z,101288.59
2022-08-02T05:53:12.060Z,101294.75
2022-08-02T05:58:23.148Z,101285.13
2022-08-02T06:03:38.111Z,101299.13
2022-08-02T06:08:47.789Z,101295.59
2022-08-02T06:13:49.837Z,101293.84
2022-08-02T06:18:51.514Z,101301.69
2022-08-02T06:23:58.722Z,101297.28
2022-08-02T06:29:01.174Z,101298.13
2022-08-02T06:34:02.884Z,101283.19
2022-08-02T06:39:10.056Z,101288.41
2022-08-02T06:44:45.043Z,101290.13
2022-08-02T06:49:51.594Z,101283.03
2022-08-02T06:54:56.818Z,101290.91
2022-08-02T07:00:00.991Z,101289.09
2022-08-02T07:05:03.795Z,101296.06
2022-08-02T07:10:05.640Z,101282.81
2022-08-02T07:15:07.912Z,101284.47
2022-08-02T07:20:10.044Z,101278.25
2022-08-02T07:25:11.870Z,101286.91
2022-08-02T07:30:13.646Z,101276.25
2022-08-02T07:35:19.308Z,101256.75
2022-08-02T07:40:21.689Z,101243.47
2022-08-02T07:45:23.896Z,101239.84
2022-08-02T07:50:25.643Z,101244.88
2022-08-02T07:55:39.303Z,101227.09
2022-08-02T08:00:43.121Z,101215.47
2022-08-02T08:05:44.797Z,101230.31
2022-08-02T08:10:46.882Z,101234.47
2022-08-02T08:15:51.734Z,101229.84
2022-08-02T08:20:54.296Z,101228.63
2022-08-02T08:25:56.194Z,101230.03
2022-08-02T08:30:57.869Z,101234.97
2022-08-02T08:35:59.569Z,101223.22
2022-08-02T08:41:04.459Z,101225.69
2022-08-02T08:46:06.272Z,101201.63
2022-08-02T08:51:11.042Z,101206.53
2022-08-02T08:56:15.928Z,101209.66
2022-08-02T09:01:18.169Z,101195.97
2022-08-02T09:06:20.480Z,101200.84
2022-08-02T09:11:25.467Z,101194.22
2022-08-02T09:16:36.879Z,101177.78
2022-08-02T09:21:38.999Z,101178.63
2022-08-02T09:26:40.677Z,101177.31
2022-08-02T09:31:49.405Z,101176.81
2022-08-02T09:36:54.758Z,101169.63
2022-08-02T09:41:56.544Z,101172.03
2022-08-02T09:46:58.215Z,101170.59
2022-08-02T09:52:00.971Z,101164.81
2022-08-02T09:57:02.630Z,101159.34
2022-08-02T10:02:09.630Z,101155.34
2022-08-02T10:07:18.885Z,101157.34
2022-08-02T10:12:22.337Z,101157.81
2022-08-02T10:17:24.817Z,101153.84
2022-08-02T10:22:26.501Z,101149.03
2022-08-02T10:27:38.913Z,101149.91
2022-08-02T10:32:50.201Z,101142.69
2022-08-02T10:37:54.596Z,101138.81
2022-08-02T10:42:59.602Z,101130.19
2022-08-02T10:48:14.468Z,101136.41
2022-08-02T10:53:25.688Z,101136.91
2022-08-02T10:58:29.888Z,101135.31
2022-08-02T11:03:32.811Z,101130.19
2022-08-02T11:08:41.147Z,101117.84
2022-08-02T11:14:03.667Z,101109.44
2022-08-02T11:19:06.803Z,101106.44
2022-08-02T11:24:31.842Z,101107.91
2022-08-02T11:29:38.679Z,101102.94
2022-08-02T11:34:40.677Z,101103.66
2022-08-02T11:39:50.166Z,101104.34
2022-08-02T11:44:51.875Z,101121.50
2022-08-02T11:50:03.534Z,101109.03
2022-08-02T11:55:06.716Z,101102.50
2022-08-02T12:00:17.017Z,101105.31
2022-08-02T12:05:20.117Z,101101.47
2022-08-02T12:10:23.111Z,101086.75
2022-08-02T12:15:41.616Z,101087.22
2022-08-02T12:20:43.275Z,101084.53
2022-08-02T12:25:44.991Z,101070.50
2022-08-02T12:30:51.562Z,101073.91
2022-08-02T12:35:53.298Z,101084.22
2022-08-02T12:40:54.985Z,101066.94
2022-08-02T12:45:57.431Z,101066.28
2022-08-02T12:50:59.153Z,101052.78
2022-08-02T12:56:03.620Z,101045.81
2022-08-02T13:01:05.628Z,101047.41
2022-08-02T13:06:39.389Z,101031.03
2022-08-02T13:11:29.247Z,101042.06
2022-08-02T13:16:33.003Z,101024.53
2022-08-02T13:21:41.143Z,101031.16
2022-08-02T13:26:56.347Z,101017.31
2022-08-02T13:31:58.027Z,101014.06
2022-08-02T13:36:59.693Z,101014.97
2022-08-02T13:42:01.503Z,101014.19
2022-08-02T13:47:03.340Z,101000.19
2022-08-02T13:52:05.335Z,101009.34
2022-08-02T13:57:07.051Z,100997.06
2022-08-02T14:02:08.801Z,101001.03
2022-08-02T14:07:10.483Z,100986.16
2022-08-02T14:12:13.194Z,100990.81
2022-08-02T14:17:15.759Z,100988.22
2022-08-02T14:22:17.414Z,100985.19
2022-08-02T14:27:19.096Z,100981.53
2022-08-02T14:32:20.761Z,100985.56
2022-08-02T14:37:29.770Z,100974.75
2022-08-02T14:42:31.513Z,100970.56
2022-08-02T14:47:33.434Z,100951.59
2022-08-02T14:52:38.062Z,100968.53
2022-08-02T14:57:39.769Z,100956.44
2022-08-02T15:02:41.507Z,100953.53
2022-08-02T15:07:47.796Z,100949.31
2022-08-02T15:12:51.156Z,100945.03
2022-08-02T15:17:52.806Z,100947.19
2022-08-02T15:22:54.561Z,100933.78
2022-08-02T15:27:56.238Z,100939.63
2022-08-02T15:32:57.914Z,100938.19
2022-08-02T15:37:59.633Z,100930.50
2022-08-02T15:43:01.368Z,100945.47
2022-08-02T15:48:03.795Z,100933.72
2022-08-02T15:53:05.535Z,100922.63
2022-08-02T15:58:08.014Z,100927.28
2022-08-02T16:03:18.904Z,100934.41
2022-08-02T16:08:20.554Z,100914.09
2022-08-02T16:13:49.923Z,100905.69
2022-08-02T16:18:55.543Z,100912.31
2022-08-02T16:24:02.699Z,100910.31
2022-08-02T16:29:05.173Z,100899.94
2022-08-02T16:34:06.904Z,100906.00
2022-08-02T16:39:08.563Z,100912.78
2022-08-02T16:44:10.753Z,100906.69
2022-08-02T16:49:56.654Z,100896.88
2022-08-02T16:54:34.331Z,100898.34
2022-08-02T16:59:41.887Z,100892.22
2022-08-02T17:04:45.053Z,100883.81
2022-08-02T17:10:01.957Z,100877.34
2022-08-02T17:16:07.972Z,100885.41
2022-08-02T17:20:29.509Z,100883.31
2022-08-02T17:25:32.182Z,100886.31
2022-08-02T17:30:34.235Z,100884.84
2022-08-02T17:35:43.823Z,100884.16
2022-08-02T17:40:55.215Z,100884.28
2022-08-02T17:46:00.560Z,100888.31
2022-08-02T17:51:04.017Z,100887.22
2022-08-02T17:56:05.706Z,100883.78
2022-08-02T18:01:24.261Z,100874.59
2022-08-02T18:06:26.255Z,100878.25
2022-08-02T18:11:52.666Z,100880.53
2022-08-02T18:16:50.437Z,100885.78
2022-08-02T18:21:52.088Z,100883.53
2022-08-02T18:26:56.689Z,100890.25
2022-08-02T18:31:58.453Z,100890.03
2022-08-02T18:37:00.211Z,100898.63
2022-08-02T18:42:02.108Z,100887.44
2022-08-02T18:47:03.806Z,100890.31
2022-08-02T18:52:05.745Z,100886.81
2022-08-02T18:58:17.199Z,100894.00
2022-08-02T19:02:31.154Z,100888.81
2022-08-02T19:07:49.793Z,100891.56
2022-08-02T19:12:53.421Z,100880.47
2022-08-02T19:17:58.042Z,100893.31
2022-08-02T19:22:59.843Z,100889.97
2022-08-02T19:28:03.351Z,100896.34
2022-08-02T19:33:09.255Z,100910.50
2022-08-02T19:38:11.473Z,100906.88
2022-08-02T19:44:23.039Z,100918.38
2022-08-02T19:48:35.085Z,100912.22
2022-08-02T19:53:46.687Z,100922.00
2022-08-02T19:58:51.363Z,100919.31
2022-08-02T20:03:53.690Z,100921.00
2022-08-02T20:14:17.022Z,100919.84
2022-08-02T20:19:18.674Z,100921.56
2022-08-02T20:24:26.566Z,100915.97
2022-08-02T20:29:43.773Z,100919.31
2022-08-02T20:35:36.256Z,100912.69
2022-08-02T20:40:38.000Z,100915.75
2022-08-02T20:45:39.695Z,100925.06
2022-08-02T20:50:49.319Z,100935.16
2022-08-02T20:55:52.346Z,100920.28
2022-08-02T21:00:56.625Z,100923.31
2022-08-02T21:05:58.764Z,100928.06
2022-08-02T21:11:01.346Z,100926.69
2022-08-02T21:16:15.013Z,100927.91
2022-08-02T21:21:20.108Z,100938.84
2022-08-02T21:26:27.851Z,100938.28
2022-08-02T21:31:33.418Z,100927.84
2022-08-02T21:36:37.621Z,100921.84
2022-08-02T21:41:46.811Z,100916.78
2022-08-02T21:46:50.485Z,100922.47
2022-08-02T21:51:52.451Z,100928.06
2022-08-02T21:56:54.186Z,100915.94
2022-08-02T22:01:56.924Z,100918.78
2022-08-02T22:06:59.014Z,100924.44
2022-08-02T22:12:00.659Z,100922.84
2022-08-02T22:17:05.317Z,100934.63
2022-08-02T22:22:10.563Z,100936.56
2022-08-02T22:27:12.211Z,100942.06
2022-08-02T22:32:35.406Z,100938.72
2022-08-02T22:43:00.919Z,100940.75
2022-08-02T22:48:03.679Z,100939.88
2022-08-02T22:53:05.480Z,100949.72
2022-08-02T22:58:07.130Z,100942.78
2022-08-02T22:58:54.654Z,100922.47
2022-08-02T23:03:08.856Z,100947.38
2022-08-02T23:08:10.558Z,100935.91
2022-08-02T23:13:12.258Z,100948.50
2022-08-02T23:18:32.424Z,100943.41
2022-08-02T23:23:34.132Z,100945.47
2022-08-02T23:28:35.912Z,100936.84
2022-08-02T23:33:37.616Z,100929.22
2022-08-02T23:39:02.138Z,100934.97
2022-08-02T23:44:13.976Z,100929.97
2022-08-02T23:49:16.580Z,100930.31
2022-08-02T23:54:18.357Z,100934.97
2022-08-02T23:59:20.027Z,100932.53
